Mecca, Indiana
Current Conditions -  °F | °C
As of 2:15 PM on Saturday 25 Oct 2014 (Local Time) from KPRG Reporting Station
Clear Clear  
Wind Chill: 76°   Ceiling: Unl
Heat Index: 78°   Visibility: 10mi
Dew Point: 54°   Wind: 8mph
Humidity: 46%   Direction: 300°WNW
Pressure: 29.99"   Gusts: NA
Location:  39.73°N, 87.33°W
Report Text: KPRG 251815Z AUTO 30007KT 10SM CLR 25/12 A2999 RMK AO2 T02450122
Loading
Personal Weather Stations






























Interactive Weather Map
Tropical Storm Tracking
New forecast layout! Learn more

10-Day Weather Forecast

Advertisements
Track Severe Weather on mobile